sensor_id;sensor_type;location;lat;lon;timestamp;P1;durP1;ratioP1;P2;durP2;ratioP2
52170;SDS011;38689;47.552;18.820;2023-05-21T00:00:22;9.60;;;6.70;;
52170;SDS011;38689;47.552;18.820;2023-05-21T00:02:48;11.35;;;6.45;;
52170;SDS011;38689;47.552;18.820;2023-05-21T00:05:16;10.10;;;6.18;;
52170;SDS011;38689;47.552;18.820;2023-05-21T00:07:43;9.30;;;6.28;;
52170;SDS011;38689;47.552;18.820;2023-05-21T00:10:12;8.60;;;6.22;;
52170;SDS011;38689;47.552;18.820;2023-05-21T00:12:41;9.20;;;6.25;;
52170;SDS011;38689;47.552;18.820;2023-05-21T00:15:07;10.23;;;6.15;;
52170;SDS011;38689;47.552;18.820;2023-05-21T00:17:34;9.48;;;6.40;;
52170;SDS011;38689;47.552;18.820;2023-05-21T00:20:01;9.55;;;6.60;;
52170;SDS011;38689;47.552;18.820;2023-05-21T00:22:31;9.68;;;6.53;;
52170;SDS011;38689;47.552;18.820;2023-05-21T00:24:58;11.02;;;7.03;;
52170;SDS011;38689;47.552;18.820;2023-05-21T00:27:24;10.93;;;6.60;;
52170;SDS011;38689;47.552;18.820;2023-05-21T00:29:50;9.25;;;6.22;;
52170;SDS011;38689;47.552;18.820;2023-05-21T00:32:16;9.45;;;6.50;;
52170;SDS011;38689;47.552;18.820;2023-05-21T00:34:42;9.40;;;6.60;;
52170;SDS011;38689;47.552;18.820;2023-05-21T00:37:09;12.18;;;6.72;;
52170;SDS011;38689;47.552;18.820;2023-05-21T00:39:35;9.80;;;6.53;;
52170;SDS011;38689;47.552;18.820;2023-05-21T00:42:01;9.25;;;6.32;;
52170;SDS011;38689;47.552;18.820;2023-05-21T00:44:28;11.23;;;6.60;;
52170;SDS011;38689;47.552;18.820;2023-05-21T00:46:59;13.25;;;6.37;;
52170;SDS011;38689;47.552;18.820;2023-05-21T00:49:26;10.10;;;6.68;;
52170;SDS011;38689;47.552;18.820;2023-05-21T00:51:52;12.05;;;6.40;;
52170;SDS011;38689;47.552;18.820;2023-05-21T00:54:19;10.10;;;6.72;;
52170;SDS011;38689;47.552;18.820;2023-05-21T00:56:46;9.23;;;6.32;;
52170;SDS011;38689;47.552;18.820;2023-05-21T00:59:17;8.80;;;6.50;;
52170;SDS011;38689;47.552;18.820;2023-05-21T01:02:04;9.40;;;6.30;;
52170;SDS011;38689;47.552;18.820;2023-05-21T01:04:31;8.80;;;6.37;;
52170;SDS011;38689;47.552;18.820;2023-05-21T01:06:57;11.48;;;6.18;;
52170;SDS011;38689;47.552;18.820;2023-05-21T01:09:24;10.35;;;6.62;;
52170;SDS011;38689;47.552;18.820;2023-05-21T01:11:51;10.32;;;6.82;;
52170;SDS011;38689;47.552;18.820;2023-05-21T01:14:17;9.63;;;6.72;;
52170;SDS011;38689;47.552;18.820;2023-05-21T01:17:04;10.10;;;6.25;;
52170;SDS011;38689;47.552;18.820;2023-05-21T01:19:34;9.63;;;6.15;;
52170;SDS011;38689;47.552;18.820;2023-05-21T01:22:06;9.02;;;6.60;;
52170;SDS011;38689;47.552;18.820;2023-05-21T01:24:33;10.75;;;6.57;;
52170;SDS011;38689;47.552;18.820;2023-05-21T01:27:01;10.40;;;6.40;;
52170;SDS011;38689;47.552;18.820;2023-05-21T01:29:27;11.05;;;6.70;;
52170;SDS011;38689;47.552;18.820;2023-05-21T01:32:04;9.70;;;6.18;;
52170;SDS011;38689;47.552;18.820;2023-05-21T01:34:41;9.32;;;6.35;;
52170;SDS011;38689;47.552;18.820;2023-05-21T01:37:16;9.10;;;6.70;;
52170;SDS011;38689;47.552;18.820;2023-05-21T01:39:54;8.55;;;6.28;;
52170;SDS011;38689;47.552;18.820;2023-05-21T01:42:23;10.98;;;6.65;;
52170;SDS011;38689;47.552;18.820;2023-05-21T01:44:54;8.57;;;6.25;;
52170;SDS011;38689;47.552;18.820;2023-05-21T01:47:22;10.65;;;6.68;;
52170;SDS011;38689;47.552;18.820;2023-05-21T01:49:49;9.63;;;6.80;;
52170;SDS011;38689;47.552;18.820;2023-05-21T01:52:15;9.27;;;6.75;;
52170;SDS011;38689;47.552;18.820;2023-05-21T01:54:41;9.25;;;6.70;;
52170;SDS011;38689;47.552;18.820;2023-05-21T01:57:07;9.07;;;6.20;;
52170;SDS011;38689;47.552;18.820;2023-05-21T01:59:33;8.57;;;6.30;;
52170;SDS011;38689;47.552;18.820;2023-05-21T02:02:01;9.35;;;6.15;;
52170;SDS011;38689;47.552;18.820;2023-05-21T02:04:27;9.55;;;7.12;;
52170;SDS011;38689;47.552;18.820;2023-05-21T02:06:53;11.45;;;6.50;;
52170;SDS011;38689;47.552;18.820;2023-05-21T02:09:19;10.73;;;6.53;;
52170;SDS011;38689;47.552;18.820;2023-05-21T02:11:45;9.40;;;6.60;;
52170;SDS011;38689;47.552;18.820;2023-05-21T02:14:11;10.18;;;6.97;;
52170;SDS011;38689;47.552;18.820;2023-05-21T02:16:38;9.68;;;6.55;;
52170;SDS011;38689;47.552;18.820;2023-05-21T02:19:06;10.50;;;6.70;;
52170;SDS011;38689;47.552;18.820;2023-05-21T02:21:35;11.20;;;6.30;;
52170;SDS011;38689;47.552;18.820;2023-05-21T02:24:01;9.20;;;6.07;;
52170;SDS011;38689;47.552;18.820;2023-05-21T02:26:27;11.05;;;6.72;;
52170;SDS011;38689;47.552;18.820;2023-05-21T02:28:53;8.45;;;6.40;;
52170;SDS011;38689;47.552;18.820;2023-05-21T02:31:20;9.40;;;6.07;;
52170;SDS011;38689;47.552;18.820;2023-05-21T02:33:46;10.77;;;6.50;;
52170;SDS011;38689;47.552;18.820;2023-05-21T02:36:12;10.00;;;6.50;;
52170;SDS011;38689;47.552;18.820;2023-05-21T02:38:39;10.80;;;6.65;;
52170;SDS011;38689;47.552;18.820;2023-05-21T02:41:11;9.05;;;6.47;;
52170;SDS011;38689;47.552;18.820;2023-05-21T02:43:37;10.85;;;6.50;;
52170;SDS011;38689;47.552;18.820;2023-05-21T02:46:05;9.27;;;6.40;;
52170;SDS011;38689;47.552;18.820;2023-05-21T02:48:32;8.82;;;6.40;;
52170;SDS011;38689;47.552;18.820;2023-05-21T02:50:58;8.50;;;6.18;;
52170;SDS011;38689;47.552;18.820;2023-05-21T02:53:25;10.32;;;6.32;;
52170;SDS011;38689;47.552;18.820;2023-05-21T02:55:52;10.85;;;6.05;;
52170;SDS011;38689;47.552;18.820;2023-05-21T02:58:18;10.95;;;6.47;;
52170;SDS011;38689;47.552;18.820;2023-05-21T03:00:46;8.90;;;6.22;;
52170;SDS011;38689;47.552;18.820;2023-05-21T03:03:12;11.63;;;6.78;;
52170;SDS011;38689;47.552;18.820;2023-05-21T03:05:38;9.15;;;6.50;;
52170;SDS011;38689;47.552;18.820;2023-05-21T03:08:04;9.93;;;6.20;;
52170;SDS011;38689;47.552;18.820;2023-05-21T03:10:30;10.65;;;5.93;;
52170;SDS011;38689;47.552;18.820;2023-05-21T03:12:56;8.18;;;6.15;;
52170;SDS011;38689;47.552;18.820;2023-05-21T03:15:22;9.45;;;6.15;;
52170;SDS011;38689;47.552;18.820;2023-05-21T03:17:51;10.40;;;6.00;;
52170;SDS011;38689;47.552;18.820;2023-05-21T03:20:19;7.68;;;5.82;;
52170;SDS011;38689;47.552;18.820;2023-05-21T03:22:45;9.27;;;6.15;;
52170;SDS011;38689;47.552;18.820;2023-05-21T03:25:12;9.63;;;6.05;;
52170;SDS011;38689;47.552;18.820;2023-05-21T03:27:39;8.52;;;5.78;;
52170;SDS011;38689;47.552;18.820;2023-05-21T03:30:05;10.55;;;6.20;;
52170;SDS011;38689;47.552;18.820;2023-05-21T03:32:32;8.05;;;5.62;;
52170;SDS011;38689;47.552;18.820;2023-05-21T03:34:58;7.87;;;5.95;;
52170;SDS011;38689;47.552;18.820;2023-05-21T03:37:24;7.93;;;5.95;;
52170;SDS011;38689;47.552;18.820;2023-05-21T03:39:50;9.23;;;6.03;;
52170;SDS011;38689;47.552;18.820;2023-05-21T03:42:16;9.68;;;5.82;;
52170;SDS011;38689;47.552;18.820;2023-05-21T03:44:43;8.85;;;5.85;;
52170;SDS011;38689;47.552;18.820;2023-05-21T03:47:09;8.98;;;5.30;;
52170;SDS011;38689;47.552;18.820;2023-05-21T03:49:35;8.48;;;5.60;;
52170;SDS011;38689;47.552;18.820;2023-05-21T03:52:01;8.88;;;5.50;;
52170;SDS011;38689;47.552;18.820;2023-05-21T03:54:27;8.43;;;5.57;;
52170;SDS011;38689;47.552;18.820;2023-05-21T03:56:53;7.43;;;5.37;;
52170;SDS011;38689;47.552;18.820;2023-05-21T03:59:19;9.77;;;5.37;;
52170;SDS011;38689;47.552;18.820;2023-05-21T04:01:45;8.30;;;5.72;;
52170;SDS011;38689;47.552;18.820;2023-05-21T04:04:11;8.93;;;5.85;;
52170;SDS011;38689;47.552;18.820;2023-05-21T04:06:37;10.00;;;5.93;;
52170;SDS011;38689;47.552;18.820;2023-05-21T04:09:06;9.32;;;5.40;;
52170;SDS011;38689;47.552;18.820;2023-05-21T04:11:32;7.72;;;5.45;;
52170;SDS011;38689;47.552;18.820;2023-05-21T04:13:58;7.45;;;5.30;;
52170;SDS011;38689;47.552;18.820;2023-05-21T04:16:25;7.28;;;5.32;;
52170;SDS011;38689;47.552;18.820;2023-05-21T04:18:52;7.65;;;5.32;;
52170;SDS011;38689;47.552;18.820;2023-05-21T04:21:19;8.85;;;5.70;;
52170;SDS011;38689;47.552;18.820;2023-05-21T04:23:46;7.68;;;5.40;;
52170;SDS011;38689;47.552;18.820;2023-05-21T04:26:12;9.07;;;5.75;;
52170;SDS011;38689;47.552;18.820;2023-05-21T04:28:40;8.48;;;5.12;;
52170;SDS011;38689;47.552;18.820;2023-05-21T04:31:07;7.28;;;5.25;;
52170;SDS011;38689;47.552;18.820;2023-05-21T04:33:33;6.80;;;5.10;;
52170;SDS011;38689;47.552;18.820;2023-05-21T04:36:00;6.90;;;4.97;;
52170;SDS011;38689;47.552;18.820;2023-05-21T04:38:26;7.20;;;4.87;;
52170;SDS011;38689;47.552;18.820;2023-05-21T04:40:52;7.87;;;5.12;;
52170;SDS011;38689;47.552;18.820;2023-05-21T04:43:18;6.97;;;5.10;;
52170;SDS011;38689;47.552;18.820;2023-05-21T04:45:50;8.00;;;4.87;;
52170;SDS011;38689;47.552;18.820;2023-05-21T04:48:17;7.00;;;5.15;;
52170;SDS011;38689;47.552;18.820;2023-05-21T04:50:43;9.32;;;4.97;;
52170;SDS011;38689;47.552;18.820;2023-05-21T04:53:09;8.27;;;5.07;;
52170;SDS011;38689;47.552;18.820;2023-05-21T04:55:35;6.80;;;4.93;;
52170;SDS011;38689;47.552;18.820;2023-05-21T04:58:05;7.00;;;4.85;;
52170;SDS011;38689;47.552;18.820;2023-05-21T05:00:36;8.52;;;5.10;;
52170;SDS011;38689;47.552;18.820;2023-05-21T05:03:03;7.20;;;4.57;;
52170;SDS011;38689;47.552;18.820;2023-05-21T05:05:29;6.93;;;4.87;;
52170;SDS011;38689;47.552;18.820;2023-05-21T05:07:56;8.88;;;5.20;;
52170;SDS011;38689;47.552;18.820;2023-05-21T05:10:22;7.18;;;4.57;;
52170;SDS011;38689;47.552;18.820;2023-05-21T05:12:48;6.32;;;4.35;;
52170;SDS011;38689;47.552;18.820;2023-05-21T05:15:15;7.00;;;4.40;;
52170;SDS011;38689;47.552;18.820;2023-05-21T05:17:41;6.85;;;4.57;;
52170;SDS011;38689;47.552;18.820;2023-05-21T05:20:07;8.15;;;4.60;;
52170;SDS011;38689;47.552;18.820;2023-05-21T05:22:34;6.95;;;4.28;;
52170;SDS011;38689;47.552;18.820;2023-05-21T05:25:00;9.23;;;4.65;;
52170;SDS011;38689;47.552;18.820;2023-05-21T05:27:26;8.50;;;4.50;;
52170;SDS011;38689;47.552;18.820;2023-05-21T05:29:52;6.00;;;4.40;;
52170;SDS011;38689;47.552;18.820;2023-05-21T05:32:18;6.87;;;4.70;;
52170;SDS011;38689;47.552;18.820;2023-05-21T05:34:44;6.62;;;4.47;;
52170;SDS011;38689;47.552;18.820;2023-05-21T05:37:11;5.78;;;4.15;;
52170;SDS011;38689;47.552;18.820;2023-05-21T05:39:37;6.50;;;4.68;;
52170;SDS011;38689;47.552;18.820;2023-05-21T05:42:03;7.03;;;4.68;;
52170;SDS011;38689;47.552;18.820;2023-05-21T05:44:29;6.62;;;4.70;;
52170;SDS011;38689;47.552;18.820;2023-05-21T05:46:55;8.13;;;4.40;;
52170;SDS011;38689;47.552;18.820;2023-05-21T05:49:21;7.65;;;4.57;;
52170;SDS011;38689;47.552;18.820;2023-05-21T05:51:47;7.28;;;4.82;;
52170;SDS011;38689;47.552;18.820;2023-05-21T05:54:13;6.97;;;3.85;;
52170;SDS011;38689;47.552;18.820;2023-05-21T05:56:39;5.50;;;4.20;;
52170;SDS011;38689;47.552;18.820;2023-05-21T05:59:05;6.37;;;4.50;;
52170;SDS011;38689;47.552;18.820;2023-05-21T06:01:31;7.22;;;4.40;;
52170;SDS011;38689;47.552;18.820;2023-05-21T06:03:57;6.60;;;4.40;;
52170;SDS011;38689;47.552;18.820;2023-05-21T06:06:23;6.97;;;4.30;;
52170;SDS011;38689;47.552;18.820;2023-05-21T06:08:49;5.87;;;4.30;;
52170;SDS011;38689;47.552;18.820;2023-05-21T06:11:15;7.22;;;4.40;;
52170;SDS011;38689;47.552;18.820;2023-05-21T06:13:43;6.18;;;4.30;;
52170;SDS011;38689;47.552;18.820;2023-05-21T06:16:10;6.00;;;4.20;;
52170;SDS011;38689;47.552;18.820;2023-05-21T06:18:36;7.20;;;4.37;;
52170;SDS011;38689;47.552;18.820;2023-05-21T06:21:02;7.62;;;4.53;;
52170;SDS011;38689;47.552;18.820;2023-05-21T06:23:28;6.05;;;4.30;;
52170;SDS011;38689;47.552;18.820;2023-05-21T06:25:56;6.90;;;4.18;;
52170;SDS011;38689;47.552;18.820;2023-05-21T06:28:22;6.28;;;4.60;;
52170;SDS011;38689;47.552;18.820;2023-05-21T06:30:48;5.80;;;4.30;;
52170;SDS011;38689;47.552;18.820;2023-05-21T06:33:14;7.53;;;4.28;;
52170;SDS011;38689;47.552;18.820;2023-05-21T06:35:40;6.65;;;4.70;;
52170;SDS011;38689;47.552;18.820;2023-05-21T06:38:07;9.75;;;4.40;;
52170;SDS011;38689;47.552;18.820;2023-05-21T06:40:33;7.80;;;4.30;;
52170;SDS011;38689;47.552;18.820;2023-05-21T06:42:59;6.45;;;4.70;;
52170;SDS011;38689;47.552;18.820;2023-05-21T06:45:25;6.03;;;4.20;;
52170;SDS011;38689;47.552;18.820;2023-05-21T06:47:51;5.30;;;4.18;;
52170;SDS011;38689;47.552;18.820;2023-05-21T06:50:17;7.25;;;4.07;;
52170;SDS011;38689;47.552;18.820;2023-05-21T06:52:45;8.10;;;4.32;;
52170;SDS011;38689;47.552;18.820;2023-05-21T06:55:11;5.20;;;4.22;;
52170;SDS011;38689;47.552;18.820;2023-05-21T06:57:37;6.30;;;4.30;;
52170;SDS011;38689;47.552;18.820;2023-05-21T07:00:03;5.65;;;4.00;;
52170;SDS011;38689;47.552;18.820;2023-05-21T07:02:30;5.85;;;4.25;;
52170;SDS011;38689;47.552;18.820;2023-05-21T07:04:56;5.20;;;4.07;;
52170;SDS011;38689;47.552;18.820;2023-05-21T07:07:22;6.37;;;4.20;;
52170;SDS011;38689;47.552;18.820;2023-05-21T07:09:48;7.85;;;4.78;;
52170;SDS011;38689;47.552;18.820;2023-05-21T07:12:14;6.45;;;4.40;;
52170;SDS011;38689;47.552;18.820;2023-05-21T07:14:40;5.43;;;3.87;;
52170;SDS011;38689;47.552;18.820;2023-05-21T07:17:06;5.90;;;3.90;;
52170;SDS011;38689;47.552;18.820;2023-05-21T07:19:32;6.62;;;4.18;;
52170;SDS011;38689;47.552;18.820;2023-05-21T07:21:58;7.25;;;4.22;;
52170;SDS011;38689;47.552;18.820;2023-05-21T07:24:25;5.78;;;4.20;;
52170;SDS011;38689;47.552;18.820;2023-05-21T07:26:53;6.47;;;4.25;;
52170;SDS011;38689;47.552;18.820;2023-05-21T07:29:19;7.70;;;3.90;;
52170;SDS011;38689;47.552;18.820;2023-05-21T07:31:46;7.20;;;4.30;;
52170;SDS011;38689;47.552;18.820;2023-05-21T07:34:12;7.20;;;4.28;;
52170;SDS011;38689;47.552;18.820;2023-05-21T07:36:38;6.00;;;4.40;;
52170;SDS011;38689;47.552;18.820;2023-05-21T07:39:04;6.72;;;4.72;;
52170;SDS011;38689;47.552;18.820;2023-05-21T07:41:31;8.07;;;4.80;;
52170;SDS011;38689;47.552;18.820;2023-05-21T07:43:57;8.68;;;4.32;;
52170;SDS011;38689;47.552;18.820;2023-05-21T07:46:23;11.65;;;7.32;;
52170;SDS011;38689;47.552;18.820;2023-05-21T07:48:49;13.82;;;8.38;;
52170;SDS011;38689;47.552;18.820;2023-05-21T07:51:15;9.30;;;6.45;;
52170;SDS011;38689;47.552;18.820;2023-05-21T07:53:41;19.55;;;11.73;;
52170;SDS011;38689;47.552;18.820;2023-05-21T07:56:08;8.25;;;4.80;;
52170;SDS011;38689;47.552;18.820;2023-05-21T07:58:34;6.95;;;4.47;;
52170;SDS011;38689;47.552;18.820;2023-05-21T08:01:00;6.37;;;4.00;;
52170;SDS011;38689;47.552;18.820;2023-05-21T08:03:27;10.35;;;4.28;;
52170;SDS011;38689;47.552;18.820;2023-05-21T08:05:55;8.35;;;6.28;;
52170;SDS011;38689;47.552;18.820;2023-05-21T08:08:21;11.52;;;7.70;;
52170;SDS011;38689;47.552;18.820;2023-05-21T08:10:48;11.40;;;7.05;;
52170;SDS011;38689;47.552;18.820;2023-05-21T08:13:14;7.22;;;4.57;;
52170;SDS011;38689;47.552;18.820;2023-05-21T08:15:41;9.70;;;5.72;;
52170;SDS011;38689;47.552;18.820;2023-05-21T08:18:07;6.18;;;3.83;;
52170;SDS011;38689;47.552;18.820;2023-05-21T08:20:33;6.57;;;4.25;;
52170;SDS011;38689;47.552;18.820;2023-05-21T08:22:59;6.40;;;4.05;;
52170;SDS011;38689;47.552;18.820;2023-05-21T08:25:25;7.30;;;3.70;;
52170;SDS011;38689;47.552;18.820;2023-05-21T08:27:51;6.97;;;3.75;;
52170;SDS011;38689;47.552;18.820;2023-05-21T08:30:18;6.43;;;4.05;;
52170;SDS011;38689;47.552;18.820;2023-05-21T08:32:44;6.05;;;3.87;;
52170;SDS011;38689;47.552;18.820;2023-05-21T08:35:10;6.87;;;3.85;;
52170;SDS011;38689;47.552;18.820;2023-05-21T08:37:36;6.05;;;3.70;;
52170;SDS011;38689;47.552;18.820;2023-05-21T08:40:02;6.37;;;2.75;;
52170;SDS011;38689;47.552;18.820;2023-05-21T08:45:03;6.10;;;3.13;;
52170;SDS011;38689;47.552;18.820;2023-05-21T08:47:33;6.30;;;3.45;;
52170;SDS011;38689;47.552;18.820;2023-05-21T08:50:01;6.68;;;3.85;;
52170;SDS011;38689;47.552;18.820;2023-05-21T08:52:29;6.62;;;3.85;;
52170;SDS011;38689;47.552;18.820;2023-05-21T08:54:56;6.12;;;3.67;;
52170;SDS011;38689;47.552;18.820;2023-05-21T08:57:23;4.93;;;3.22;;
52170;SDS011;38689;47.552;18.820;2023-05-21T08:59:50;6.30;;;3.80;;
52170;SDS011;38689;47.552;18.820;2023-05-21T09:02:16;4.60;;;3.55;;
52170;SDS011;38689;47.552;18.820;2023-05-21T09:04:44;10.07;;;4.62;;
52170;SDS011;38689;47.552;18.820;2023-05-21T09:07:13;5.53;;;4.20;;
52170;SDS011;38689;47.552;18.820;2023-05-21T09:09:48;7.25;;;4.25;;
52170;SDS011;38689;47.552;18.820;2023-05-21T09:12:18;4.55;;;3.47;;
52170;SDS011;38689;47.552;18.820;2023-05-21T09:14:45;5.60;;;4.10;;
52170;SDS011;38689;47.552;18.820;2023-05-21T09:17:12;5.00;;;3.78;;
52170;SDS011;38689;47.552;18.820;2023-05-21T09:22:48;5.15;;;3.83;;
52170;SDS011;38689;47.552;18.820;2023-05-21T09:25:15;5.78;;;3.58;;
52170;SDS011;38689;47.552;18.820;2023-05-21T09:27:43;5.68;;;3.03;;
52170;SDS011;38689;47.552;18.820;2023-05-21T09:30:10;4.72;;;3.03;;
52170;SDS011;38689;47.552;18.820;2023-05-21T09:32:37;5.40;;;3.22;;
52170;SDS011;38689;47.552;18.820;2023-05-21T09:35:07;9.98;;;3.42;;
52170;SDS011;38689;47.552;18.820;2023-05-21T09:37:52;7.72;;;3.65;;
52170;SDS011;38689;47.552;18.820;2023-05-21T09:40:19;5.20;;;3.60;;
52170;SDS011;38689;47.552;18.820;2023-05-21T09:42:49;7.00;;;4.15;;
52170;SDS011;38689;47.552;18.820;2023-05-21T09:45:23;6.82;;;3.92;;
52170;SDS011;38689;47.552;18.820;2023-05-21T09:47:50;5.68;;;4.20;;
52170;SDS011;38689;47.552;18.820;2023-05-21T09:50:26;6.12;;;3.83;;
52170;SDS011;38689;47.552;18.820;2023-05-21T09:52:53;5.85;;;3.92;;
52170;SDS011;38689;47.552;18.820;2023-05-21T09:55:24;8.20;;;3.95;;
52170;SDS011;38689;47.552;18.820;2023-05-21T09:57:51;5.65;;;4.18;;
52170;SDS011;38689;47.552;18.820;2023-05-21T10:00:21;4.93;;;3.75;;
52170;SDS011;38689;47.552;18.820;2023-05-21T10:02:49;4.72;;;2.92;;
52170;SDS011;38689;47.552;18.820;2023-05-21T10:05:23;13.25;;;2.85;;
52170;SDS011;38689;47.552;18.820;2023-05-21T10:07:52;4.28;;;2.53;;
52170;SDS011;38689;47.552;18.820;2023-05-21T10:10:19;5.10;;;2.70;;
52170;SDS011;38689;47.552;18.820;2023-05-21T10:12:46;4.55;;;2.97;;
52170;SDS011;38689;47.552;18.820;2023-05-21T10:15:21;6.10;;;2.90;;
52170;SDS011;38689;47.552;18.820;2023-05-21T10:17:48;4.25;;;2.60;;
52170;SDS011;38689;47.552;18.820;2023-05-21T10:20:15;5.62;;;3.08;;
52170;SDS011;38689;47.552;18.820;2023-05-21T10:22:41;5.80;;;3.20;;
52170;SDS011;38689;47.552;18.820;2023-05-21T10:25:09;4.75;;;2.83;;
52170;SDS011;38689;47.552;18.820;2023-05-21T10:27:35;7.43;;;2.90;;
52170;SDS011;38689;47.552;18.820;2023-05-21T10:30:03;6.50;;;2.97;;
52170;SDS011;38689;47.552;18.820;2023-05-21T10:32:30;5.07;;;2.95;;
52170;SDS011;38689;47.552;18.820;2023-05-21T10:34:58;4.80;;;2.70;;
52170;SDS011;38689;47.552;18.820;2023-05-21T10:37:25;4.85;;;2.90;;
52170;SDS011;38689;47.552;18.820;2023-05-21T10:40:01;6.03;;;2.70;;
52170;SDS011;38689;47.552;18.820;2023-05-21T10:47:44;5.12;;;2.78;;
52170;SDS011;38689;47.552;18.820;2023-05-21T10:50:20;4.95;;;2.75;;
52170;SDS011;38689;47.552;18.820;2023-05-21T11:00:53;4.87;;;2.60;;
52170;SDS011;38689;47.552;18.820;2023-05-21T11:03:20;6.82;;;3.05;;
52170;SDS011;38689;47.552;18.820;2023-05-21T11:05:51;4.25;;;2.97;;
52170;SDS011;38689;47.552;18.820;2023-05-21T11:08:28;5.47;;;2.83;;
52170;SDS011;38689;47.552;18.820;2023-05-21T11:11:00;4.50;;;2.67;;
52170;SDS011;38689;47.552;18.820;2023-05-21T11:13:28;5.03;;;2.87;;
52170;SDS011;38689;47.552;18.820;2023-05-21T11:16:21;5.15;;;2.60;;
52170;SDS011;38689;47.552;18.820;2023-05-21T11:21:16;5.87;;;3.05;;
52170;SDS011;38689;47.552;18.820;2023-05-21T11:26:19;6.07;;;2.70;;
52170;SDS011;38689;47.552;18.820;2023-05-21T11:28:50;4.75;;;2.83;;
52170;SDS011;38689;47.552;18.820;2023-05-21T11:31:36;8.88;;;2.72;;
52170;SDS011;38689;47.552;18.820;2023-05-21T11:36:45;5.47;;;2.55;;
52170;SDS011;38689;47.552;18.820;2023-05-21T11:39:16;3.53;;;2.45;;
52170;SDS011;38689;47.552;18.820;2023-05-21T11:47:05;4.47;;;2.67;;
52170;SDS011;38689;47.552;18.820;2023-05-21T11:49:36;4.45;;;2.67;;
52170;SDS011;38689;47.552;18.820;2023-05-21T11:52:06;9.00;;;2.60;;
52170;SDS011;38689;47.552;18.820;2023-05-21T11:54:38;6.78;;;2.70;;
52170;SDS011;38689;47.552;18.820;2023-05-21T11:57:05;6.90;;;2.60;;
52170;SDS011;38689;47.552;18.820;2023-05-21T11:59:32;4.25;;;2.62;;
52170;SDS011;38689;47.552;18.820;2023-05-21T12:01:59;5.18;;;2.80;;
52170;SDS011;38689;47.552;18.820;2023-05-21T12:04:29;4.97;;;2.62;;
52170;SDS011;38689;47.552;18.820;2023-05-21T12:06:56;5.00;;;2.90;;
52170;SDS011;38689;47.552;18.820;2023-05-21T12:09:24;5.57;;;3.05;;
52170;SDS011;38689;47.552;18.820;2023-05-21T12:11:51;4.87;;;2.80;;
52170;SDS011;38689;47.552;18.820;2023-05-21T12:14:17;6.78;;;3.00;;
52170;SDS011;38689;47.552;18.820;2023-05-21T12:16:43;5.20;;;3.35;;
52170;SDS011;38689;47.552;18.820;2023-05-21T12:19:10;5.45;;;3.22;;
52170;SDS011;38689;47.552;18.820;2023-05-21T12:21:35;3.70;;;2.95;;
52170;SDS011;38689;47.552;18.820;2023-05-21T12:24:02;5.12;;;3.80;;
52170;SDS011;38689;47.552;18.820;2023-05-21T12:26:28;5.40;;;3.78;;
52170;SDS011;38689;47.552;18.820;2023-05-21T12:28:57;7.00;;;4.00;;
52170;SDS011;38689;47.552;18.820;2023-05-21T12:31:23;5.82;;;3.80;;
52170;SDS011;38689;47.552;18.820;2023-05-21T12:33:52;6.22;;;3.67;;
52170;SDS011;38689;47.552;18.820;2023-05-21T12:36:22;6.07;;;3.47;;
52170;SDS011;38689;47.552;18.820;2023-05-21T12:38:51;5.35;;;3.53;;
52170;SDS011;38689;47.552;18.820;2023-05-21T12:41:17;5.78;;;3.78;;
52170;SDS011;38689;47.552;18.820;2023-05-21T12:43:44;8.27;;;3.92;;
52170;SDS011;38689;47.552;18.820;2023-05-21T12:46:10;5.35;;;3.70;;
52170;SDS011;38689;47.552;18.820;2023-05-21T12:48:39;7.75;;;4.30;;
52170;SDS011;38689;47.552;18.820;2023-05-21T12:51:07;5.05;;;3.80;;
52170;SDS011;38689;47.552;18.820;2023-05-21T12:53:36;6.85;;;4.00;;
52170;SDS011;38689;47.552;18.820;2023-05-21T12:56:09;5.80;;;3.47;;
52170;SDS011;38689;47.552;18.820;2023-05-21T12:58:36;6.05;;;3.62;;
52170;SDS011;38689;47.552;18.820;2023-05-21T13:01:08;5.28;;;3.97;;
52170;SDS011;38689;47.552;18.820;2023-05-21T13:03:37;5.20;;;2.75;;
52170;SDS011;38689;47.552;18.820;2023-05-21T13:06:06;6.65;;;3.20;;
52170;SDS011;38689;47.552;18.820;2023-05-21T13:08:33;4.03;;;2.70;;
52170;SDS011;38689;47.552;18.820;2023-05-21T13:11:00;5.50;;;3.17;;
52170;SDS011;38689;47.552;18.820;2023-05-21T13:13:26;6.30;;;3.03;;
52170;SDS011;38689;47.552;18.820;2023-05-21T13:15:53;6.15;;;2.92;;
52170;SDS011;38689;47.552;18.820;2023-05-21T13:18:22;4.70;;;3.08;;
52170;SDS011;38689;47.552;18.820;2023-05-21T13:20:48;4.97;;;3.10;;
52170;SDS011;38689;47.552;18.820;2023-05-21T13:23:16;6.05;;;3.00;;
52170;SDS011;38689;47.552;18.820;2023-05-21T13:25:41;5.37;;;3.30;;
52170;SDS011;38689;47.552;18.820;2023-05-21T13:28:08;4.30;;;2.83;;
52170;SDS011;38689;47.552;18.820;2023-05-21T13:30:36;4.30;;;3.03;;
52170;SDS011;38689;47.552;18.820;2023-05-21T13:33:02;4.85;;;2.92;;
52170;SDS011;38689;47.552;18.820;2023-05-21T13:35:29;4.32;;;2.67;;
52170;SDS011;38689;47.552;18.820;2023-05-21T13:37:55;5.30;;;3.03;;
52170;SDS011;38689;47.552;18.820;2023-05-21T13:40:21;4.68;;;3.03;;
52170;SDS011;38689;47.552;18.820;2023-05-21T13:42:48;6.15;;;3.20;;
52170;SDS011;38689;47.552;18.820;2023-05-21T13:45:15;4.78;;;3.00;;
52170;SDS011;38689;47.552;18.820;2023-05-21T13:47:43;4.65;;;3.12;;
52170;SDS011;38689;47.552;18.820;2023-05-21T13:50:09;8.70;;;3.25;;
52170;SDS011;38689;47.552;18.820;2023-05-21T13:52:36;5.47;;;3.20;;
52170;SDS011;38689;47.552;18.820;2023-05-21T13:55:03;4.28;;;2.87;;
52170;SDS011;38689;47.552;18.820;2023-05-21T13:57:29;4.93;;;3.33;;
52170;SDS011;38689;47.552;18.820;2023-05-21T13:59:56;4.82;;;2.97;;
52170;SDS011;38689;47.552;18.820;2023-05-21T14:02:22;4.93;;;3.42;;
52170;SDS011;38689;47.552;18.820;2023-05-21T14:04:48;5.22;;;2.90;;
52170;SDS011;38689;47.552;18.820;2023-05-21T14:07:14;4.60;;;3.20;;
52170;SDS011;38689;47.552;18.820;2023-05-21T14:09:40;5.07;;;3.20;;
52170;SDS011;38689;47.552;18.820;2023-05-21T14:12:06;4.70;;;3.00;;
52170;SDS011;38689;47.552;18.820;2023-05-21T14:14:33;6.35;;;3.30;;
52170;SDS011;38689;47.552;18.820;2023-05-21T14:16:59;5.15;;;3.00;;
52170;SDS011;38689;47.552;18.820;2023-05-21T14:19:25;5.60;;;3.03;;
52170;SDS011;38689;47.552;18.820;2023-05-21T14:21:51;5.47;;;3.25;;
52170;SDS011;38689;47.552;18.820;2023-05-21T14:24:17;5.50;;;2.78;;
52170;SDS011;38689;47.552;18.820;2023-05-21T14:26:44;4.65;;;2.90;;
52170;SDS011;38689;47.552;18.820;2023-05-21T14:29:10;5.00;;;3.03;;
52170;SDS011;38689;47.552;18.820;2023-05-21T14:31:36;6.60;;;3.05;;
52170;SDS011;38689;47.552;18.820;2023-05-21T14:34:03;6.72;;;2.87;;
52170;SDS011;38689;47.552;18.820;2023-05-21T14:36:31;4.60;;;3.08;;
52170;SDS011;38689;47.552;18.820;2023-05-21T14:38:57;6.62;;;3.00;;
52170;SDS011;38689;47.552;18.820;2023-05-21T14:41:23;4.82;;;2.90;;
52170;SDS011;38689;47.552;18.820;2023-05-21T14:43:53;5.87;;;3.20;;
52170;SDS011;38689;47.552;18.820;2023-05-21T14:46:19;8.23;;;3.20;;
52170;SDS011;38689;47.552;18.820;2023-05-21T14:48:46;5.43;;;3.33;;
52170;SDS011;38689;47.552;18.820;2023-05-21T14:51:12;5.50;;;3.15;;
52170;SDS011;38689;47.552;18.820;2023-05-21T14:53:38;5.00;;;2.97;;
52170;SDS011;38689;47.552;18.820;2023-05-21T14:56:05;5.78;;;2.95;;
52170;SDS011;38689;47.552;18.820;2023-05-21T14:58:31;5.03;;;2.60;;
52170;SDS011;38689;47.552;18.820;2023-05-21T15:00:57;7.12;;;3.58;;
52170;SDS011;38689;47.552;18.820;2023-05-21T15:03:23;7.35;;;3.33;;
52170;SDS011;38689;47.552;18.820;2023-05-21T15:05:49;5.40;;;3.17;;